createdAt,value
2018-08-16T00:01:41.577Z,97770.80
2018-08-16T00:04:10.198Z,97768.67
2018-08-16T00:06:38.713Z,97768.23
2018-08-16T00:09:07.942Z,97777.23
2018-08-16T00:11:36.714Z,97772.09
2018-08-16T00:14:05.459Z,97779.40
2018-08-16T00:16:34.035Z,97773.41
2018-08-16T00:19:02.627Z,97772.97
2018-08-16T00:21:31.226Z,97769.52
2018-08-16T00:23:59.796Z,97769.52
2018-08-16T00:26:28.318Z,97770.80
2018-08-16T00:28:56.835Z,97767.80
2018-08-16T00:31:25.392Z,97764.38
2018-08-16T00:33:53.936Z,97769.96
2018-08-16T00:36:22.478Z,97769.08
2018-08-16T00:38:51.084Z,97767.77
2018-08-16T00:41:19.704Z,97763.91
2018-08-16T00:43:48.309Z,97764.79
2018-08-16T00:46:16.878Z,97758.77
2018-08-16T00:48:45.490Z,97757.05
2018-08-16T00:51:14.067Z,97756.60
2018-08-16T00:53:42.643Z,97754.03
2018-08-16T00:56:11.334Z,97751.02
2018-08-16T00:58:39.911Z,97745.87
2018-08-16T01:01:08.482Z,97743.72
2018-08-16T01:03:37.111Z,97739.86
2018-08-16T01:06:05.661Z,97740.73
2018-08-16T01:08:34.204Z,97740.30
2018-08-16T01:11:02.864Z,97739.42
2018-08-16T01:13:31.413Z,97744.59
2018-08-16T01:15:59.957Z,97744.13
2018-08-16T01:18:28.506Z,97744.56
2018-08-16T01:20:57.112Z,97736.41
2018-08-16T01:23:26.839Z,97732.97
2018-08-16T01:25:55.643Z,97738.11
2018-08-16T01:28:24.326Z,97734.66
2018-08-16T01:30:53.011Z,97736.41
2018-08-16T01:33:21.624Z,97728.70
2018-08-16T01:35:50.440Z,97737.23
2018-08-16T01:38:19.156Z,97725.66
2018-08-16T01:40:47.794Z,97723.97
2018-08-16T01:43:16.378Z,97718.82
2018-08-16T01:45:45.049Z,97720.11
2018-08-16T01:48:13.973Z,97724.40
2018-08-16T01:50:42.896Z,97717.53
2018-08-16T01:53:11.795Z,97713.68
2018-08-16T01:55:40.532Z,97711.11
2018-08-16T01:58:09.181Z,97710.67
2018-08-16T02:00:37.829Z,97710.70
2018-08-16T02:03:06.801Z,97709.82
2018-08-16T02:05:35.566Z,97704.68
2018-08-16T02:08:07.442Z,97699.54
2018-08-16T02:10:36.049Z,97702.52
2018-08-16T02:13:04.810Z,97702.11
2018-08-16T02:15:33.548Z,97699.54
2018-08-16T02:18:02.167Z,97699.97
2018-08-16T02:20:30.920Z,97700.83
2018-08-16T02:22:59.489Z,97699.13
2018-08-16T02:25:28.060Z,97696.97
2018-08-16T02:27:56.681Z,97698.66
2018-08-16T02:30:25.336Z,97702.55
2018-08-16T02:32:54.073Z,97700.42
2018-08-16T02:35:22.796Z,97696.09
2018-08-16T02:37:51.547Z,97694.80
2018-08-16T02:40:20.087Z,97697.38
2018-08-16T02:42:48.688Z,97699.95
2018-08-16T02:45:17.320Z,97699.10
2018-08-16T02:47:45.867Z,97694.36
2018-08-16T02:50:14.433Z,97698.22
2018-08-16T02:52:42.979Z,97697.79
2018-08-16T02:55:11.605Z,97693.05
2018-08-16T02:57:40.262Z,97694.78
2018-08-16T03:00:09.987Z,97691.36
2018-08-16T03:02:38.557Z,97690.48
2018-08-16T03:05:07.417Z,97684.47
2018-08-16T03:07:36.392Z,97686.22
2018-08-16T03:10:06.448Z,97690.48
2018-08-16T03:12:34.975Z,97689.20
2018-08-16T03:15:03.512Z,97686.63
2018-08-16T03:17:32.088Z,97681.89
2018-08-16T03:20:00.680Z,97689.20
2018-08-16T03:22:29.314Z,97686.59
2018-08-16T03:24:57.994Z,97685.31
2018-08-16T03:27:26.671Z,97687.03
2018-08-16T03:29:55.375Z,97686.59
2018-08-16T03:32:23.940Z,97685.72
2018-08-16T03:35:04.339Z,97686.19
2018-08-16T03:37:32.850Z,97687.48
2018-08-16T03:40:01.944Z,97682.30
2018-08-16T03:42:30.489Z,97683.59
2018-08-16T03:44:59.030Z,97681.02
2018-08-16T03:47:27.558Z,97679.73
2018-08-16T03:49:56.055Z,97682.71
2018-08-16T03:52:24.566Z,97679.73
2018-08-16T03:54:53.082Z,97676.72
2018-08-16T03:57:21.614Z,97675.87
2018-08-16T03:59:50.117Z,97678.45
2018-08-16T04:02:18.690Z,97689.58
2018-08-16T04:04:47.186Z,97687.00
2018-08-16T04:07:15.848Z,97686.16
2018-08-16T04:09:44.369Z,97684.87
2018-08-16T04:12:12.904Z,97688.29
2018-08-16T04:14:41.414Z,97696.00
2018-08-16T04:17:10.239Z,97693.88
2018-08-16T04:19:38.989Z,97693.88
2018-08-16T04:22:07.503Z,97693.44
2018-08-16T04:24:36.035Z,97690.86
2018-08-16T04:27:04.522Z,97698.17
2018-08-16T04:29:33.078Z,97696.88
2018-08-16T04:32:01.633Z,97696.00
2018-08-16T04:34:30.168Z,97699.42
2018-08-16T04:36:58.653Z,97696.85
2018-08-16T04:39:27.190Z,97695.59
2018-08-16T04:41:55.723Z,97687.86
2018-08-16T04:44:24.224Z,97693.00
2018-08-16T04:46:52.742Z,97691.70
2018-08-16T04:49:21.322Z,97690.42
2018-08-16T04:51:49.819Z,97695.13
2018-08-16T04:54:18.355Z,97688.23
2018-08-16T04:56:46.887Z,97688.23
2018-08-16T04:59:15.412Z,97692.13
2018-08-16T05:01:43.939Z,97691.27
2018-08-16T05:04:12.451Z,97686.98
2018-08-16T05:06:40.966Z,97690.02
2018-08-16T05:09:10.363Z,97692.13
2018-08-16T05:11:39.783Z,97699.42
2018-08-16T05:14:08.588Z,97697.26
2018-08-16T05:16:37.263Z,97700.27
2018-08-16T05:19:06.396Z,97697.23
2018-08-16T05:21:35.109Z,97698.95
2018-08-16T05:24:03.657Z,97700.68
2018-08-16T05:26:32.191Z,97698.95
2018-08-16T05:29:00.702Z,97696.39
2018-08-16T05:31:29.222Z,97700.27
2018-08-16T05:33:57.760Z,97698.98
2018-08-16T05:36:26.267Z,97700.68
2018-08-16T05:38:54.802Z,97701.94
2018-08-16T05:41:23.373Z,97703.62
2018-08-16T05:43:51.927Z,97699.77
2018-08-16T05:46:20.475Z,97705.79
2018-08-16T05:48:49.343Z,97699.77
2018-08-16T05:51:17.936Z,97703.20
2018-08-16T05:53:46.479Z,97707.05
2018-08-16T05:56:14.995Z,97706.20
2018-08-16T05:58:43.508Z,97705.47
2018-08-16T06:01:12.284Z,97711.69
2018-08-16T06:03:40.846Z,97716.00
2018-08-16T06:06:09.348Z,97714.13
2018-08-16T06:08:37.853Z,97719.55
2018-08-16T06:11:06.422Z,97712.64
2018-08-16T06:13:35.051Z,97712.41
2018-08-16T06:16:03.564Z,97717.89
2018-08-16T06:18:32.091Z,97707.47
2018-08-16T06:21:00.685Z,97715.22
2018-08-16T06:23:29.200Z,97707.53
2018-08-16T06:25:57.693Z,97705.73
2018-08-16T06:28:26.257Z,97700.20
2018-08-16T06:30:54.765Z,97704.18
2018-08-16T06:33:23.270Z,97705.54
2018-08-16T06:35:52.342Z,97702.06
2018-08-16T06:38:21.721Z,97701.53
2018-08-16T06:40:50.216Z,97701.25
2018-08-16T06:43:18.723Z,97696.25
2018-08-16T06:45:47.231Z,97696.78
2018-08-16T06:48:15.810Z,97697.98
2018-08-16T06:50:44.326Z,97694.66
2018-08-16T06:53:12.967Z,97699.50
2018-08-16T06:55:41.466Z,97700.07
2018-08-16T06:58:10.109Z,97699.03
2018-08-16T07:00:38.580Z,97702.91
2018-08-16T07:03:07.111Z,97699.11
2018-08-16T07:05:35.618Z,97703.79
2018-08-16T07:08:04.164Z,97700.83
2018-08-16T07:10:32.686Z,97702.59
2018-08-16T07:13:01.213Z,97702.30
2018-08-16T07:15:29.830Z,97698.17
2018-08-16T07:17:58.312Z,97697.96
2018-08-16T07:20:26.794Z,97683.16
2018-08-16T07:22:55.298Z,97685.88
2018-08-16T07:25:23.804Z,97685.11
2018-08-16T07:27:52.428Z,97686.58
2018-08-16T07:30:20.897Z,97686.17
2018-08-16T07:32:49.393Z,97684.56
2018-08-16T07:35:17.846Z,97682.58
2018-08-16T07:37:46.315Z,97681.40
2018-08-16T07:40:14.823Z,97682.58
2018-08-16T07:42:43.351Z,97682.10
2018-08-16T07:45:12.345Z,97685.22
2018-08-16T07:47:40.961Z,97678.91
2018-08-16T07:50:10.675Z,97681.95
2018-08-16T07:52:40.024Z,97682.39
2018-08-16T07:55:09.114Z,97673.84
2018-08-16T07:57:37.612Z,97671.95
2018-08-16T08:00:10.015Z,97673.70
2018-08-16T08:02:38.507Z,97676.67
2018-08-16T08:05:06.984Z,97681.00
2018-08-16T08:07:35.531Z,97673.41
2018-08-16T08:10:04.019Z,97671.79
2018-08-16T08:12:32.508Z,97669.77
2018-08-16T08:15:01.007Z,97661.39
2018-08-16T08:17:29.643Z,97660.20
2018-08-16T08:19:58.129Z,97658.21
2018-08-16T08:22:26.614Z,97660.44
2018-08-16T08:24:55.110Z,97661.82
2018-08-16T08:27:23.620Z,97670.03
2018-08-16T08:29:52.120Z,97661.11
2018-08-16T08:32:20.625Z,97667.63
2018-08-16T08:34:49.134Z,97662.58
2018-08-16T08:37:28.958Z,97660.95
2018-08-16T08:39:57.435Z,97661.89
2018-08-16T08:42:25.930Z,97655.13
2018-08-16T08:44:54.415Z,97647.92
2018-08-16T08:47:27.296Z,97650.58
2018-08-16T08:49:55.769Z,97646.34
2018-08-16T08:52:24.298Z,97651.95
2018-08-16T08:56:01.836Z,97642.55
2018-08-16T08:58:44.273Z,97642.58
2018-08-16T09:01:13.746Z,97646.91
2018-08-16T09:03:42.278Z,97633.62
2018-08-16T09:06:10.755Z,97638.34
2018-08-16T09:08:39.221Z,97631.08
2018-08-16T09:11:20.104Z,97630.67
2018-08-16T09:14:07.363Z,97628.98
2018-08-16T09:16:37.836Z,97626.00
2018-08-16T09:19:07.037Z,97624.73
2018-08-16T09:21:35.956Z,97623.05
2018-08-16T09:24:04.561Z,97620.06
2018-08-16T09:26:40.000Z,97620.09
2018-08-16T09:30:19.310Z,97618.84
2018-08-16T09:32:59.133Z,97609.47
2018-08-16T09:35:28.288Z,97611.56
2018-08-16T09:37:57.130Z,97602.22
2018-08-16T09:40:25.689Z,97597.93
2018-08-16T09:43:05.796Z,97600.09
2018-08-16T09:45:46.421Z,97598.83
2018-08-16T09:48:26.249Z,97597.98
2018-08-16T09:50:54.807Z,97592.44
2018-08-16T09:53:23.285Z,97589.89
2018-08-16T09:55:51.839Z,97587.76
2018-08-16T09:58:20.344Z,97579.23
2018-08-16T10:00:54.063Z,97574.12
2018-08-16T10:03:22.533Z,97577.58
2018-08-16T10:05:51.011Z,97577.64
2018-08-16T10:08:19.495Z,97571.65
2018-08-16T10:10:47.963Z,97573.42
2018-08-16T10:13:16.434Z,97569.64
2018-08-16T10:15:44.938Z,97567.53
2018-08-16T10:18:14.098Z,97562.44
2018-08-16T10:20:42.571Z,97556.89
2018-08-16T10:23:11.176Z,97561.67
2018-08-16T10:25:39.683Z,97559.15
2018-08-16T10:28:08.221Z,97545.92
2018-08-16T10:30:36.722Z,97549.78
2018-08-16T10:33:05.230Z,97543.86
2018-08-16T10:35:33.764Z,97549.92
2018-08-16T10:38:02.263Z,97548.70
2018-08-16T10:40:30.759Z,97544.94
2018-08-16T10:42:59.670Z,97548.45
2018-08-16T10:45:28.141Z,97540.36
2018-08-16T10:47:56.645Z,97538.16
2018-08-16T10:50:25.127Z,97537.27
2018-08-16T10:52:53.628Z,97535.95
2018-08-16T10:55:22.167Z,97531.20
2018-08-16T10:57:50.639Z,97527.77
2018-08-16T11:00:19.130Z,97527.77
2018-08-16T11:02:47.626Z,97526.05
2018-08-16T11:05:16.105Z,97529.02
2018-08-16T11:07:44.587Z,97527.33
2018-08-16T11:10:13.336Z,97523.03
2018-08-16T11:12:41.874Z,97521.33
2018-08-16T11:15:10.334Z,97512.33
2018-08-16T11:17:38.818Z,97511.92
2018-08-16T11:20:07.334Z,97508.87
2018-08-16T11:22:36.791Z,97505.44
2018-08-16T11:25:05.733Z,97513.18
2018-08-16T11:27:34.444Z,97506.28
2018-08-16T11:30:03.029Z,97511.89
2018-08-16T11:32:31.633Z,97508.47
2018-08-16T11:35:00.237Z,97496.00
2018-08-16T11:37:29.454Z,97492.58
2018-08-16T11:39:57.958Z,97488.72
2018-08-16T11:42:26.591Z,97485.27
2018-08-16T11:44:55.104Z,97485.27
2018-08-16T11:47:24.152Z,97489.50
2018-08-16T11:49:52.697Z,97485.16
2018-08-16T11:52:21.206Z,97484.29
2018-08-16T11:54:50.433Z,97482.19
2018-08-16T11:57:18.939Z,97482.55
2018-08-16T11:59:47.459Z,97482.12
2018-08-16T12:02:16.063Z,97477.84
2018-08-16T12:04:44.449Z,97478.34
2018-08-16T12:07:13.924Z,97482.23
2018-08-16T12:09:42.470Z,97471.47
2018-08-16T12:12:10.956Z,97467.20
2018-08-16T12:14:39.511Z,97467.19
2018-08-16T12:17:08.045Z,97469.75
2018-08-16T12:19:36.528Z,97469.75
2018-08-16T12:22:05.051Z,97470.14
2018-08-16T12:24:33.535Z,97467.14
2018-08-16T12:27:02.083Z,97463.69
2018-08-16T12:29:30.573Z,97460.69
2018-08-16T12:31:59.082Z,97461.98
2018-08-16T12:34:27.589Z,97456.42
2018-08-16T12:36:56.090Z,97459.41
2018-08-16T12:39:24.580Z,97448.23
2018-08-16T12:41:53.094Z,97443.97
2018-08-16T12:44:22.090Z,97442.26
2018-08-16T12:46:50.591Z,97445.27
2018-08-16T12:49:19.282Z,97437.11
2018-08-16T12:51:47.772Z,97436.23
2018-08-16T12:54:16.266Z,97431.08
2018-08-16T12:56:44.814Z,97437.50
2018-08-16T12:59:13.295Z,97212.92
2018-08-16T13:01:41.776Z,97431.48
2018-08-16T13:04:10.293Z,97420.35
2018-08-16T13:06:38.834Z,97419.48
2018-08-16T13:09:09.020Z,97423.77
2018-08-16T13:11:38.128Z,97414.34
2018-08-16T13:14:06.724Z,97415.19
2018-08-16T13:16:35.724Z,97407.03
2018-08-16T13:19:04.413Z,97401.45
2018-08-16T13:21:32.919Z,97401.45
2018-08-16T13:24:02.009Z,97398.45
2018-08-16T13:26:30.535Z,97395.01
2018-08-16T13:28:59.014Z,97397.58
2018-08-16T13:31:27.494Z,97395.42
2018-08-16T13:33:56.050Z,97395.88
2018-08-16T13:36:24.524Z,97392.44
2018-08-16T13:38:53.044Z,97389.45
2018-08-16T13:41:21.565Z,97391.16
2018-08-16T13:43:50.044Z,97381.27
2018-08-16T13:46:18.542Z,97376.16
2018-08-16T13:48:47.040Z,97376.13
2018-08-16T13:51:15.560Z,97365.41
2018-08-16T13:53:44.038Z,97364.56
2018-08-16T13:56:12.536Z,97367.58
2018-08-16T13:58:41.010Z,97368.86
2018-08-16T14:01:09.699Z,97358.58
2018-08-16T14:03:38.175Z,97365.44
2018-08-16T14:06:07.118Z,97369.70
2018-08-16T14:08:35.619Z,97368.01
2018-08-16T14:11:04.115Z,97360.70
2018-08-16T14:13:32.598Z,97360.70
2018-08-16T14:16:01.081Z,97363.72
2018-08-16T14:18:29.590Z,97359.86
2018-08-16T14:20:58.071Z,97365.41
2018-08-16T14:23:26.574Z,97357.70
2018-08-16T14:25:55.065Z,97354.28
2018-08-16T14:28:23.580Z,97343.97
2018-08-16T14:30:52.064Z,97343.56
2018-08-16T14:33:20.546Z,97349.12
2018-08-16T14:35:49.032Z,97348.27
2018-08-16T14:38:17.602Z,97345.70
2018-08-16T14:40:46.112Z,97344.41
2018-08-16T14:43:14.639Z,97338.40
2018-08-16T14:45:43.255Z,97336.23
2018-08-16T14:48:12.220Z,97340.97
2018-08-16T14:50:42.039Z,97331.97
2018-08-16T14:53:10.851Z,97337.11
2018-08-16T14:55:39.347Z,97337.11
2018-08-16T14:58:08.060Z,97341.84
2018-08-16T15:00:36.556Z,97334.95
2018-08-16T15:03:05.107Z,97340.56
2018-08-16T15:05:33.623Z,97333.67
2018-08-16T15:08:02.119Z,97328.09
2018-08-16T15:10:30.606Z,97332.83
2018-08-16T15:12:59.111Z,97337.11
2018-08-16T15:15:27.607Z,97335.42
2018-08-16T15:17:56.115Z,97336.23
2018-08-16T15:20:24.606Z,97331.08
2018-08-16T15:22:53.171Z,97329.81
2018-08-16T15:25:21.665Z,97337.52
2018-08-16T15:27:50.144Z,97329.81
2018-08-16T15:30:18.645Z,97330.26
2018-08-16T15:32:47.158Z,97325.95
2018-08-16T15:35:15.667Z,97329.81
2018-08-16T15:37:44.143Z,97320.40
2018-08-16T15:40:12.632Z,97318.23
2018-08-16T15:42:41.123Z,97319.11
2018-08-16T15:45:09.675Z,97318.23
2018-08-16T15:47:38.172Z,97317.40
2018-08-16T15:50:06.694Z,97317.83
2018-08-16T15:52:35.231Z,97316.97
2018-08-16T15:55:03.827Z,97310.55
2018-08-16T15:57:32.325Z,97311.81
2018-08-16T16:00:01.546Z,97317.42
2018-08-16T16:02:30.115Z,97274.67
2018-08-16T16:04:58.636Z,97304.09
2018-08-16T16:07:27.149Z,97306.26
2018-08-16T16:09:55.663Z,97304.56
2018-08-16T16:12:24.154Z,97304.09
2018-08-16T16:14:52.670Z,97314.84
2018-08-16T16:17:21.184Z,97301.53
2018-08-16T16:19:49.683Z,97297.26
2018-08-16T16:22:18.232Z,97300.70
2018-08-16T16:24:46.814Z,97300.24
2018-08-16T16:27:15.265Z,97301.12
2018-08-16T16:29:43.784Z,97289.95
2018-08-16T16:32:12.300Z,97293.81
2018-08-16T16:34:40.811Z,97293.81
2018-08-16T16:37:09.339Z,97290.40
2018-08-16T16:39:37.894Z,97290.84
2018-08-16T16:42:06.879Z,97292.56
2018-08-16T16:44:35.478Z,97292.58
2018-08-16T16:47:03.999Z,97287.92
2018-08-16T16:49:32.509Z,97284.08
2018-08-16T16:52:01.063Z,97281.56
2018-08-16T16:54:29.635Z,97282.01
2018-08-16T16:56:58.150Z,97276.90
2018-08-16T16:59:27.040Z,97276.05
2018-08-16T17:01:55.793Z,97278.64
2018-08-16T17:04:24.765Z,97276.55
2018-08-16T17:06:53.301Z,97288.97
2018-08-16T17:09:21.843Z,97284.73
2018-08-16T17:11:50.371Z,97281.81
2018-08-16T17:14:18.887Z,97277.11
2018-08-16T17:16:47.568Z,97278.39
2018-08-16T17:19:16.223Z,97278.08
2018-08-16T17:21:44.780Z,97281.24
2018-08-16T17:24:13.330Z,97281.31
2018-08-16T17:26:41.851Z,97284.36
2018-08-16T17:29:10.362Z,97280.52
2018-08-16T17:31:38.879Z,97283.09
2018-08-16T17:34:07.386Z,97279.22
2018-08-16T17:36:35.944Z,97285.22
2018-08-16T17:39:05.621Z,97283.55
2018-08-16T17:41:34.471Z,97287.45
2018-08-16T17:44:03.074Z,97285.33
2018-08-16T17:46:31.786Z,97278.48
2018-08-16T17:49:00.341Z,97279.75
2018-08-16T17:51:28.911Z,97286.18
2018-08-16T17:53:57.560Z,97281.00
2018-08-16T17:56:26.420Z,97279.70
2018-08-16T17:58:54.940Z,97286.11
2018-08-16T18:01:23.519Z,97277.95
2018-08-16T18:03:52.034Z,97277.48
2018-08-16T18:06:20.606Z,97272.28
2018-08-16T18:08:49.187Z,97275.30
2018-08-16T18:11:17.688Z,97274.02
2018-08-16T18:13:46.247Z,97276.13
2018-08-16T18:16:14.771Z,97273.53
2018-08-16T18:18:43.322Z,97276.95
2018-08-16T18:21:11.855Z,97273.89
2018-08-16T18:23:40.470Z,97276.05
2018-08-16T18:26:09.252Z,97275.59
2018-08-16T18:28:38.295Z,97275.98
2018-08-16T18:31:06.928Z,97280.25
2018-08-16T18:33:35.604Z,97279.82
2018-08-16T18:36:04.236Z,97278.11
2018-08-16T18:38:32.967Z,97285.36
2018-08-16T18:41:01.623Z,97284.49
2018-08-16T18:43:30.533Z,97284.89
2018-08-16T18:45:59.286Z,97291.72
2018-08-16T18:48:27.972Z,97292.97
2018-08-16T18:50:56.679Z,97288.26
2018-08-16T18:53:25.392Z,97291.66
2018-08-16T18:55:54.008Z,97295.47
2018-08-16T18:58:22.729Z,97296.33
2018-08-16T19:00:51.463Z,97300.58
2018-08-16T19:03:20.064Z,97302.27
2018-08-16T19:05:48.732Z,97300.11
2018-08-16T19:08:17.486Z,97303.12
2018-08-16T19:10:46.184Z,97295.87
2018-08-16T19:13:14.821Z,97303.61
2018-08-16T19:15:43.496Z,97304.02
2018-08-16T19:18:12.169Z,97261.33
2018-08-16T19:20:40.830Z,97305.31
2018-08-16T19:23:09.578Z,97307.48
2018-08-16T19:25:38.236Z,97310.54
2018-08-16T19:28:06.906Z,97308.38
2018-08-16T19:30:35.645Z,97316.09
2018-08-16T19:33:04.391Z,97309.68
2018-08-16T19:35:33.076Z,97309.27
2018-08-16T19:38:01.778Z,97314.84
2018-08-16T19:40:30.445Z,97308.39
2018-08-16T19:42:59.132Z,97310.54
2018-08-16T19:45:27.850Z,97310.98
2018-08-16T19:47:56.587Z,97307.57
2018-08-16T19:50:25.122Z,97308.41
2018-08-16T19:52:53.841Z,97308.00
2018-08-16T19:55:22.477Z,97309.28
2018-08-16T19:57:51.098Z,97299.41
2018-08-16T20:00:19.776Z,97307.12
2018-08-16T20:02:48.578Z,97307.12
2018-08-16T20:05:17.258Z,97308.42
2018-08-16T20:07:45.953Z,97309.71
2018-08-16T20:10:14.660Z,97313.17
2018-08-16T20:12:43.312Z,97303.28
2018-08-16T20:15:11.971Z,97302.02
2018-08-16T20:17:40.641Z,97296.86
2018-08-16T20:20:09.335Z,97304.58
2018-08-16T20:22:37.907Z,97302.87
2018-08-16T20:25:06.674Z,97304.56
2018-08-16T20:27:35.434Z,97305.02
2018-08-16T20:30:04.132Z,97303.27
2018-08-16T20:32:32.857Z,97302.84
2018-08-16T20:35:01.446Z,97305.41
2018-08-16T20:37:30.197Z,97301.53
2018-08-16T20:39:58.871Z,97303.67
2018-08-16T20:42:27.555Z,97306.25
2018-08-16T20:44:56.139Z,97306.20
2018-08-16T20:47:24.786Z,97301.45
2018-08-16T20:49:53.552Z,97304.88
2018-08-16T20:52:22.238Z,97302.72
2018-08-16T20:54:50.878Z,97303.59
2018-08-16T20:57:19.589Z,97305.70
2018-08-16T20:59:48.160Z,97306.56
2018-08-16T21:02:16.772Z,97312.09
2018-08-16T21:04:45.496Z,97309.97
2018-08-16T21:07:14.234Z,97312.53
2018-08-16T21:09:42.883Z,97317.23
2018-08-16T21:12:11.457Z,97312.53
2018-08-16T21:14:40.252Z,97310.34
2018-08-16T21:17:08.832Z,97312.06
2018-08-16T21:19:37.439Z,97317.21
2018-08-16T21:22:06.199Z,97312.92
2018-08-16T21:24:34.818Z,97315.06
2018-08-16T21:27:03.355Z,97321.05
2018-08-16T21:29:31.961Z,97318.92
2018-08-16T21:32:00.519Z,97321.52
2018-08-16T21:34:29.138Z,97318.06
2018-08-16T21:36:57.684Z,97318.06
2018-08-16T21:39:26.187Z,97321.03
2018-08-16T21:41:54.721Z,97321.03
2018-08-16T21:44:23.239Z,97327.92
2018-08-16T21:46:51.796Z,97321.89
2018-08-16T21:49:20.322Z,97325.33
2018-08-16T21:51:48.922Z,97325.75
2018-08-16T21:54:17.607Z,97325.33
2018-08-16T21:56:46.106Z,97325.31
2018-08-16T21:59:14.809Z,97327.42
2018-08-16T22:01:43.473Z,97328.71
2018-08-16T22:04:12.034Z,97330.00
2018-08-16T22:06:51.840Z,97332.57
2018-08-16T22:09:20.382Z,97335.14
2018-08-16T22:11:48.958Z,97336.00
2018-08-16T22:14:17.499Z,97338.16
2018-08-16T22:16:46.053Z,97341.14
2018-08-16T22:19:14.590Z,97336.88
2018-08-16T22:21:43.118Z,97339.00
2018-08-16T22:24:11.643Z,97337.72
2018-08-16T22:26:40.200Z,97337.28
2018-08-16T22:29:08.762Z,97338.98
2018-08-16T22:31:37.332Z,97336.88
2018-08-16T22:34:05.957Z,97338.98
2018-08-16T22:36:34.540Z,97334.28
2018-08-16T22:39:03.365Z,97339.84
2018-08-16T22:41:31.906Z,97333.81
2018-08-16T22:44:01.070Z,97339.84
2018-08-16T22:46:29.635Z,97326.11
2018-08-16T22:48:58.203Z,97320.12
2018-08-16T22:51:26.730Z,97330.41
2018-08-16T22:53:55.262Z,97324.41
2018-08-16T22:56:23.836Z,97324.39
2018-08-16T22:58:53.085Z,97326.95
2018-08-16T23:01:21.691Z,97320.94
2018-08-16T23:03:50.215Z,97319.67
2018-08-16T23:06:18.881Z,97314.95
2018-08-16T23:08:47.501Z,97313.23
2018-08-16T23:11:16.031Z,97317.09
2018-08-16T23:13:44.659Z,97315.39
2018-08-16T23:16:13.802Z,97314.52
2018-08-16T23:18:42.455Z,97312.38
2018-08-16T23:21:11.015Z,97316.66
2018-08-16T23:23:39.525Z,97321.80
2018-08-16T23:26:08.056Z,97319.64
2018-08-16T23:28:36.786Z,97315.37
2018-08-16T23:31:05.390Z,97317.06
2018-08-16T23:33:34.050Z,97313.67
2018-08-16T23:36:02.792Z,97314.06
2018-08-16T23:38:31.274Z,97265.33
2018-08-16T23:41:00.737Z,97308.05
2018-08-16T23:43:29.302Z,97306.34
2018-08-16T23:45:57.798Z,97301.20
2018-08-16T23:48:30.917Z,97301.62
2018-08-16T23:51:00.388Z,97301.20
2018-08-16T23:53:28.962Z,97302.49
2018-08-16T23:55:58.374Z,97294.34
2018-08-16T23:58:27.575Z,97289.20
